This is the latest recevied weather packets stored in our database for station/object DB0ROB-10. If no packets are shown the sender has not sent any weather packets the latest 10 day(s).
| Time | Temp. | Humidity | Pressure | Rain* | Wind** | Luminosity | Snow |
|---|---|---|---|---|---|---|---|
| 1777944698 | 11.11° C | 67% | 1011.6 hPa | - | - | - | - |
| 1777943798 | 11.11° C | 67% | 1011.7 hPa | - | - | - | - |
| 1777942898 | 11.11° C | 67% | 1012 hPa | - | - | - | - |
| 1777941997 | 11.67° C | 66% | 1012.1 hPa | - | - | - | - |
| 1777941097 | 11.67° C | 66% | 1012.1 hPa | - | - | - | - |
| 1777940197 | 11.11° C | 68% | 1012.2 hPa | - | - | - | - |
| 1777939296 | 11.11° C | 67% | 1012.4 hPa | - | - | - | - |
| 1777938395 | 11.67° C | 67% | 1012.4 hPa | - | - | - | - |
| 1777937495 | 11.67° C | 66% | 1012.4 hPa | - | - | - | - |
| 1777936594 | 11.67° C | 65% | 1012.5 hPa | - | - | - | - |
| 1777935694 | 11.67° C | 64% | 1012.7 hPa | - | - | - | - |
| 1777934793 | 12.22° C | 62% | 1012.9 hPa | - | - | - | - |
| 1777933893 | 12.22° C | 62% | 1012.9 hPa | - | - | - | - |
| 1777932993 | 12.22° C | 61% | 1013 hPa | - | - | - | - |
| 1777932093 | 12.22° C | 61% | 1013.1 hPa | - | - | - | - |
| 1777931192 | 12.78° C | 59% | 1013 hPa | - | - | - | - |
| 1777930292 | 12.78° C | 60% | 1013.1 hPa | - | - | - | - |
| 1777929392 | 12.78° C | 58% | 1013.1 hPa | - | - | - | - |
| 1777928491 | 12.78° C | 62% | 1013.1 hPa | - | - | - | - |
| 1777927591 | 12.78° C | 63% | 1013.1 hPa | - | - | - | - |
| 1777926691 | 12.78° C | 62% | 1013.1 hPa | - | - | - | - |
| 1777925791 | 12.78° C | 63% | 1013.2 hPa | - | - | - | - |
| 1777924890 | 12.22° C | 63% | 1013.4 hPa | - | - | - | - |
| 1777923996 | 12.78° C | 61% | 1013.4 hPa | - | - | - | - |
| 1777923096 | 13.33° C | 58% | 1013.4 hPa | - | - | - | - |
* Rain since midnight (hover to see other rain measurements)
** Current wind speed in m/s (hover to see current wind gust speed)